Time;durP1;ratioP1;P1;durP2;ratioP2;P2;SDS_P1;SDS_P2;PMS_P1;PMS_P2;Temp;Humidity;BMP_temperature;BMP_pressure;BME280_temperature;BME280_humidity;BME280_pressure;Samples;Min_cycle;Max_cycle;Signal;HPM_P1;HPM_P2
2021/12/01 00:02:17;;;;;;;7.85;5.40;;;;;;;8.17;100.00;100249.47;5111319;29;20049;-86
2021/12/01 00:04:48;;;;;;;4.55;4.22;;;;;;;8.55;100.00;100302.31;5107470;29;20066;-88
2021/12/01 00:07:18;;;;;;;4.53;4.22;;;;;;;8.66;100.00;100320.97;5107577;29;20600;-88
2021/12/01 00:09:49;;;;;;;5.53;5.22;;;;;;;8.51;100.00;100302.00;5107235;29;20028;-87
2021/12/01 00:12:20;;;;;;;4.78;4.28;;;;;;;8.50;100.00;100273.47;5107395;29;20512;-87
2021/12/01 00:14:50;;;;;;;6.15;4.55;;;;;;;8.54;100.00;100276.47;5105886;28;20038;-87
2021/12/01 00:17:21;;;;;;;5.13;4.72;;;;;;;8.48;100.00;100255.97;5108177;29;20397;-88
2021/12/01 00:19:52;;;;;;;4.97;4.63;;;;;;;8.25;100.00;100227.50;5107506;29;20020;-87
2021/12/01 00:22:22;;;;;;;4.68;4.38;;;;;;;8.51;100.00;100269.72;5121467;29;20027;-89
2021/12/01 00:24:54;;;;;;;6.97;6.57;;;;;;;8.24;100.00;100215.09;5122793;29;20432;-88
2021/12/01 00:27:25;;;;;;;6.50;6.10;;;;;;;8.57;100.00;100255.25;5117440;29;20035;-88
2021/12/01 00:29:56;;;;;;;6.30;5.90;;;;;;;8.58;100.00;100251.47;5122607;29;20028;-88
2021/12/01 00:32:28;;;;;;;7.90;7.40;;;;;;;8.57;100.00;100247.16;5115448;29;20027;-87
2021/12/01 00:34:59;;;;;;;8.95;8.32;;;;;;;8.56;100.00;100250.13;5107031;29;20024;-88
2021/12/01 00:37:29;;;;;;;12.02;7.55;;;;;;;8.32;100.00;100187.75;5107090;29;20015;-87
2021/12/01 00:40:00;;;;;;;8.68;7.88;;;;;;;8.29;100.00;100189.06;5107113;29;20033;-87
2021/12/01 00:42:30;;;;;;;10.55;9.27;;;;;;;8.52;100.00;100219.41;5105615;29;20028;-87
2021/12/01 00:45:07;;;;;;;8.93;8.32;;;;;;;8.24;100.00;100180.16;5105629;29;20031;-88
2021/12/01 00:47:50;;;;;;;7.95;7.47;;;;;;;8.36;100.00;100197.78;5106876;29;20050;-88
2021/12/01 00:50:33;;;;;;;8.95;8.35;;;;;;;8.02;100.00;100135.34;5105954;29;20026;-88
2021/12/01 00:53:07;;;;;;;8.80;8.15;;;;;;;8.48;100.00;100212.91;5107553;29;20042;-89
2021/12/01 00:55:39;;;;;;;7.93;7.38;;;;;;;7.72;100.00;100100.13;5105688;29;20038;-88
2021/12/01 00:58:13;;;;;;;8.20;7.50;;;;;;;8.17;100.00;100145.38;5107420;29;20050;-88
2021/12/01 01:00:44;;;;;;;8.60;8.05;;;;;;;8.28;100.00;100160.53;5107080;29;20051;-88
2021/12/01 01:03:16;;;;;;;6.95;6.55;;;;;;;8.18;100.00;100152.38;5107709;29;20035;-87
2021/12/01 01:05:47;;;;;;;7.45;6.95;;;;;;;8.19;100.00;100139.75;5105685;29;20030;-86
2021/12/01 01:08:18;;;;;;;6.05;5.60;;;;;;;8.08;100.00;100130.81;5107057;29;20036;-88
2021/12/01 01:16:22;;;;;;;7.88;7.35;;;;;;;8.36;100.00;100157.41;5107179;29;20039;-87
2021/12/01 01:18:59;;;;;;;7.05;6.40;;;;;;;8.37;100.00;100153.63;5106933;29;20024;-87
2021/12/01 01:21:37;;;;;;;6.35;6.05;;;;;;;8.12;100.00;100103.13;5107084;29;20405;-86
2021/12/01 01:24:08;;;;;;;16.33;7.35;;;;;;;8.07;100.00;100105.81;5107326;29;20031;-87
2021/12/01 01:26:38;;;;;;;6.25;5.78;;;;;;;8.29;100.00;100137.16;5107448;29;20439;-87
2021/12/01 01:29:09;;;;;;;6.40;6.00;;;;;;;8.09;100.00;100105.53;5111171;29;20035;-87
2021/12/01 01:31:39;;;;;;;5.45;5.15;;;;;;;7.86;100.00;100055.63;5116997;29;20023;-88
2021/12/01 01:34:10;;;;;;;5.25;4.95;;;;;;;7.82;100.00;100051.81;5123383;29;20050;-87
2021/12/01 01:36:40;;;;;;;4.82;4.53;;;;;;;7.71;100.00;100009.84;5122731;29;20034;-89
2021/12/01 01:39:10;;;;;;;5.55;5.25;;;;;;;8.24;100.00;100099.44;5124261;29;20016;-88
2021/12/01 01:41:41;;;;;;;4.65;4.25;;;;;;;8.04;100.00;100074.06;5118091;29;20496;-89
2021/12/01 01:44:12;;;;;;;5.63;5.32;;;;;;;7.76;100.00;100026.81;5107348;28;20123;-88
2021/12/01 01:46:42;;;;;;;4.03;3.83;;;;;;;7.99;100.00;100076.69;5108225;29;20046;-88
2021/12/01 01:49:19;;;;;;;5.85;5.45;;;;;;;8.05;100.00;100081.06;5109098;29;20023;-87
2021/12/01 01:51:50;;;;;;;4.68;4.47;;;;;;;8.00;100.00;100067.56;5110518;29;20027;-88
2021/12/01 01:54:20;;;;;;;4.65;4.35;;;;;;;8.08;100.00;100091.25;5106550;29;20034;-89
2021/12/01 01:56:51;;;;;;;4.57;4.38;;;;;;;7.82;100.00;100070.63;5108602;29;20027;-88
2021/12/01 01:59:21;;;;;;;5.22;4.93;;;;;;;7.99;100.00;100071.31;5110265;29;20054;-88
2021/12/01 02:01:57;;;;;;;4.10;3.80;;;;;;;7.78;100.00;100037.31;5109987;29;20464;-88
2021/12/01 02:04:32;;;;;;;6.35;5.85;;;;;;;7.71;100.00;100025.97;5109702;29;20031;-88
2021/12/01 02:07:03;;;;;;;5.25;4.95;;;;;;;7.92;100.00;100046.53;5110152;29;20078;-88
2021/12/01 02:09:34;;;;;;;4.88;4.65;;;;;;;7.69;100.00;100006.59;5109768;29;20031;-88
2021/12/01 02:12:05;;;;;;;5.28;4.57;;;;;;;7.80;100.00;100019.81;5110124;29;20507;-87
2021/12/01 02:14:35;;;;;;;4.47;4.07;;;;;;;7.95;100.00;100032.56;5109899;29;20509;-88
2021/12/01 02:17:06;;;;;;;4.78;4.50;;;;;;;7.39;100.00;99946.19;5109697;29;20020;-89
2021/12/01 02:19:37;;;;;;;4.63;4.32;;;;;;;7.99;100.00;100027.50;5108638;28;20223;-89
2021/12/01 02:22:07;;;;;;;4.70;4.50;;;;;;;7.51;100.00;99940.63;5108519;28;20031;-88
2021/12/01 02:24:38;;;;;;;4.68;4.47;;;;;;;7.92;100.00;100008.91;5109843;29;20477;-88
2021/12/01 02:27:12;;;;;;;4.03;3.83;;;;;;;7.15;100.00;99883.19;5108792;28;20047;-88
2021/12/01 02:29:43;;;;;;;5.18;4.70;;;;;;;7.57;100.00;99946.84;5110214;29;20035;-87
2021/12/01 02:32:13;;;;;;;4.85;4.65;;;;;;;7.50;100.00;99935.53;5109599;29;20400;-88
2021/12/01 02:34:44;;;;;;;5.72;5.22;;;;;;;7.75;100.00;99960.69;5109648;29;20098;-88
2021/12/01 02:37:15;;;;;;;5.88;5.38;;;;;;;7.89;100.00;99979.84;5109164;29;20031;-87
2021/12/01 02:39:49;;;;;;;10.05;5.38;;;;;;;7.94;100.00;99971.81;5108691;28;20028;-87
2021/12/01 02:42:20;;;;;;;5.65;5.30;;;;;;;7.79;100.00;99953.72;5110026;29;20402;-89
2021/12/01 02:44:51;;;;;;;6.53;5.70;;;;;;;7.84;100.00;99962.88;5109659;29;20028;-88
2021/12/01 02:47:24;;;;;;;5.47;5.18;;;;;;;7.38;100.00;99880.13;5109785;29;20505;-88
2021/12/01 02:49:55;;;;;;;5.63;5.28;;;;;;;7.54;100.00;99878.31;5108448;29;20035;-86
2021/12/01 02:52:26;;;;;;;5.50;5.15;;;;;;;7.63;100.00;99900.94;5109898;29;20473;-87
2021/12/01 02:54:56;;;;;;;6.15;5.72;;;;;;;7.41;100.00;99849.25;5109868;29;20137;-89
2021/12/01 02:57:27;;;;;;;6.30;5.97;;;;;;;7.89;100.00;99931.47;5110636;29;20043;-88
2021/12/01 02:59:57;;;;;;;6.55;6.18;;;;;;;7.55;100.00;99863.00;5110426;29;20032;-87
2021/12/01 03:02:28;;;;;;;6.22;5.70;;;;;;;7.62;100.00;99885.09;5110513;29;20023;-88
2021/12/01 03:04:58;;;;;;;6.63;5.25;;;;;;;7.67;100.00;99869.00;5109538;29;20047;-88
2021/12/01 03:07:30;;;;;;;6.20;5.80;;;;;;;7.90;100.00;99897.31;5113210;29;20076;-87
2021/12/01 03:10:01;;;;;;;5.47;5.03;;;;;;;7.90;100.00;99886.56;5113666;29;20107;-88
2021/12/01 03:12:34;;;;;;;5.75;5.45;;;;;;;7.88;100.00;99883.34;5110248;29;20050;-89
2021/12/01 03:15:08;;;;;;;4.85;4.60;;;;;;;7.84;100.00;99883.03;5110128;29;20027;-87
2021/12/01 03:17:38;;;;;;;5.10;4.90;;;;;;;7.83;100.00;99867.97;5110600;29;20020;-86
2021/12/01 03:20:11;;;;;;;5.43;5.13;;;;;;;7.65;100.00;99839.69;5109219;29;20504;-87
2021/12/01 03:22:42;;;;;;;4.80;4.47;;;;;;;7.40;100.00;99800.09;5110636;29;20031;-88
2021/12/01 03:25:14;;;;;;;5.72;5.43;;;;;;;7.42;100.00;99786.41;5108420;28;20051;-88
2021/12/01 03:27:44;;;;;;;5.25;4.85;;;;;;;7.38;100.00;99796.84;5110169;29;20027;-88
2021/12/01 03:30:15;;;;;;;6.85;6.45;;;;;;;7.21;100.00;99765.88;5109715;29;20095;-87
2021/12/01 03:32:45;;;;;;;6.72;6.10;;;;;;;7.39;100.00;99782.34;5109874;29;20119;-89
2021/12/01 03:35:16;;;;;;;6.93;6.32;;;;;;;7.68;100.00;99827.63;5107005;29;20023;-89
2021/12/01 03:37:47;;;;;;;6.88;6.47;;;;;;;7.52;100.00;99804.44;5107442;29;20028;-87
2021/12/01 03:40:17;;;;;;;6.60;6.25;;;;;;;7.51;100.00;99811.66;5107489;29;20035;-88
2021/12/01 03:42:48;;;;;;;8.55;8.02;;;;;;;7.31;100.00;99782.84;5106437;29;20036;-87
2021/12/01 03:45:18;;;;;;;8.48;7.97;;;;;;;7.08;100.00;99743.78;5107122;29;20095;-88
2021/12/01 03:47:49;;;;;;;8.82;8.32;;;;;;;7.33;100.00;99783.41;5108283;29;20027;-89
2021/12/01 03:50:19;;;;;;;8.35;7.85;;;;;;;7.23;100.00;99740.38;5107506;29;20024;-89
2021/12/01 03:52:50;;;;;;;7.30;6.75;;;;;;;7.04;100.00;99720.41;5108229;29;20081;-88
2021/12/01 03:55:21;;;;;;;7.43;6.93;;;;;;;7.17;100.00;99736.06;5108603;28;20098;-89
2021/12/01 03:57:51;;;;;;;8.27;7.78;;;;;;;7.14;100.00;99727.72;5108259;29;20024;-89
2021/12/01 04:00:22;;;;;;;9.95;9.35;;;;;;;6.55;100.00;99637.50;5106867;29;20039;-89
2021/12/01 04:02:52;;;;;;;8.48;7.88;;;;;;;7.27;100.00;99746.84;5107049;28;20039;-89
2021/12/01 04:05:23;;;;;;;9.70;8.82;;;;;;;7.11;100.00;99716.44;5108654;29;20448;-90
2021/12/01 04:07:54;;;;;;;8.65;8.15;;;;;;;6.80;100.00;99660.19;5107328;29;20401;-88
2021/12/01 04:10:24;;;;;;;7.43;6.93;;;;;;;6.50;100.00;99634.78;5107578;28;20478;-88
2021/12/01 04:12:55;;;;;;;7.85;7.38;;;;;;;7.22;100.00;99706.53;5108753;29;20034;-89
2021/12/01 04:15:25;;;;;;;6.30;5.90;;;;;;;7.22;100.00;99695.00;5107293;29;20031;-89
2021/12/01 04:17:56;;;;;;;7.70;6.95;;;;;;;6.97;100.00;99658.09;5108080;29;20031;-88
2021/12/01 04:20:27;;;;;;;7.88;7.18;;;;;;;6.87;100.00;99647.34;5108695;29;20039;-88
2021/12/01 04:22:57;;;;;;;7.05;6.40;;;;;;;7.19;100.00;99671.38;5108913;29;20024;-89
2021/12/01 04:25:27;;;;;;;7.63;7.07;;;;;;;6.61;100.00;99577.47;5108813;29;20027;-89
2021/12/01 04:27:58;;;;;;;6.78;6.30;;;;;;;7.15;100.00;99652.28;5107083;28;20034;-89
2021/12/01 04:30:29;;;;;;;7.80;7.30;;;;;;;6.74;100.00;99571.59;5107054;29;20032;-89
2021/12/01 04:32:59;;;;;;;6.15;5.65;;;;;;;7.24;100.00;99653.38;5108228;29;20031;-88
2021/12/01 04:35:30;;;;;;;7.72;6.20;;;;;;;6.62;100.00;99546.88;5108002;29;20043;-89
2021/12/01 04:38:02;;;;;;;6.63;5.78;;;;;;;6.70;100.00;99557.09;5106830;29;20028;-88
2021/12/01 04:40:33;;;;;;;5.40;5.07;;;;;;;7.12;100.00;99604.50;5106902;28;20028;-89
2021/12/01 04:46:15;;;;;;;4.82;4.63;;;;;;;7.23;100.00;99626.78;5155572;28;20074;-79
2021/12/01 04:48:47;;;;;;;5.45;5.05;;;;;;;6.14;100.00;99448.00;5107089;29;20020;-82
2021/12/01 04:51:24;;;;;;;4.35;4.10;;;;;;;7.18;100.00;99619.56;5106655;29;20024;-82
2021/12/01 04:53:58;;;;;;;4.70;4.40;;;;;;;6.26;100.00;99468.16;5105814;28;20102;-82
2021/12/01 04:56:29;;;;;;;5.75;5.45;;;;;;;7.15;100.00;99612.03;5106863;29;20024;-82
2021/12/01 04:59:00;;;;;;;4.18;3.90;;;;;;;6.35;100.00;99492.59;5105434;28;20099;-79
2021/12/01 05:02:08;;;;;;;4.78;4.57;;;;;;;7.11;100.00;99598.31;5106149;29;20024;-80
2021/12/01 05:04:40;;;;;;;5.07;4.78;;;;;;;6.12;100.00;99439.41;5105931;29;20102;-83
2021/12/01 05:07:13;;;;;;;7.05;4.88;;;;;;;6.51;100.00;99496.16;5102717;29;20561;-82
2021/12/01 05:09:43;;;;;;;5.10;4.80;;;;;;;6.94;100.00;99570.06;5102856;29;20035;-82
2021/12/01 05:12:26;;;;;;;4.40;4.20;;;;;;;7.09;100.00;99586.22;5098599;29;20032;-81
2021/12/01 05:14:56;;;;;;;3.83;3.63;;;;;;;6.36;100.00;99462.81;5102489;29;20054;-81
2021/12/01 05:17:27;;;;;;;14.48;3.90;;;;;;;7.09;100.00;99568.25;5104577;29;20063;-83
2021/12/01 05:20:22;;;;;;;4.43;4.22;;;;;;;7.08;100.00;99585.41;5102903;29;20040;-82
2021/12/01 05:22:52;;;;;;;3.60;3.45;;;;;;;6.02;100.00;99408.84;5101028;28;20028;-84
2021/12/01 05:25:22;;;;;;;3.33;3.17;;;;;;;5.78;100.00;99365.53;5104236;29;20084;-84
2021/12/01 05:27:53;;;;;;;4.15;3.78;;;;;;;6.21;100.00;99443.19;5107614;29;20055;-83
2021/12/01 05:30:23;;;;;;;2.67;2.53;;;;;;;6.87;100.00;99518.53;5102574;29;20039;-84
2021/12/01 05:32:54;;;;;;;3.13;3.03;;;;;;;7.07;100.00;99548.09;5102436;29;20039;-85
2021/12/01 05:35:24;;;;;;;3.13;3.03;;;;;;;6.99;100.00;99557.47;5211887;23;20124;-92
2021/12/01 05:37:55;;;;;;;3.53;3.25;;;;;;;7.06;100.00;99559.91;5267062;28;20028;-92
2021/12/01 05:40:30;;;;;;;2.92;2.83;;;;;;;7.07;100.00;99558.84;5257844;28;20043;-93
2021/12/01 05:43:04;;;;;;;5.47;3.97;;;;;;;7.06;100.00;99565.28;5258482;28;20101;-92
2021/12/01 05:45:45;;;;;;;3.28;3.08;;;;;;;6.56;100.00;99518.44;5261172;28;20076;-93
2021/12/01 05:48:18;;;;;;;2.83;2.72;;;;;;;4.78;100.00;99181.97;5255818;28;20134;-91
2021/12/01 05:51:03;;;;;;;3.00;2.90;;;;;;;5.71;100.00;99313.28;5251829;28;20059;-93
2021/12/01 05:53:55;;;;;;;4.70;3.55;;;;;;;7.06;100.00;99536.56;5244793;28;20025;-93
2021/12/01 05:59:39;;;;;;;4.22;3.97;;;;;;;7.05;100.00;99497.38;5272642;22;20052;-58
2021/12/01 06:02:34;;;;;;;2.72;2.60;;;;;;;7.09;100.00;99489.59;5245470;28;20054;-57
2021/12/01 06:05:06;;;;;;;2.50;2.40;;;;;;;7.09;100.00;99503.81;5244274;28;20036;-55
2021/12/01 06:07:36;;;;;;;3.00;2.90;;;;;;;7.10;100.00;99483.97;5244550;28;20028;-55
2021/12/01 06:11:03;;;;;;;3.00;2.90;;;;;;;7.11;100.00;99464.09;5244691;28;20123;-55
2021/12/01 06:13:34;;;;;;;3.53;3.42;;;;;;;7.13;100.00;99477.25;5243512;28;20016;-60
2021/12/01 06:16:05;;;;;;;4.30;4.10;;;;;;;7.15;100.00;99460.88;5244523;28;20035;-54
2021/12/01 06:18:35;;;;;;;3.38;3.20;;;;;;;7.16;100.00;99455.25;5244545;28;20020;-54
2021/12/01 06:21:06;;;;;;;3.85;3.70;;;;;;;7.17;100.00;99451.47;5244639;28;20028;-54
2021/12/01 06:23:45;;;;;;;4.28;4.07;;;;;;;7.19;100.00;99460.06;5244564;28;20066;-55
2021/12/01 06:26:16;;;;;;;18.48;4.60;;;;;;;7.21;100.00;99451.75;5242704;28;20025;-54
2021/12/01 06:28:47;;;;;;;4.38;4.18;;;;;;;7.00;100.00;99406.09;5244457;28;20416;-56
2021/12/01 06:31:18;;;;;;;6.18;4.00;;;;;;;7.24;100.00;99443.94;5244337;28;20041;-54
2021/12/01 06:33:48;;;;;;;4.05;3.75;;;;;;;7.27;100.00;99446.09;5243990;28;20115;-54
2021/12/01 06:36:19;;;;;;;4.95;3.63;;;;;;;7.31;100.00;99441.00;5244565;28;20115;-54
2021/12/01 06:38:49;;;;;;;4.25;3.63;;;;;;;7.26;100.00;99425.69;5245811;28;20024;-56
2021/12/01 06:41:35;;;;;;;3.88;3.67;;;;;;;7.34;100.00;99424.34;5244418;28;20492;-56
2021/12/01 06:44:06;;;;;;;4.00;3.70;;;;;;;7.30;100.00;99407.97;5246287;28;20107;-55
2021/12/01 06:50:04;;;;;;;10.18;3.88;;;;;;;7.38;100.00;99439.66;5249360;28;20028;-55
2021/12/01 06:52:35;;;;;;;3.60;3.50;;;;;;;7.39;100.00;99438.59;5247700;28;20029;-59
2021/12/01 06:55:07;;;;;;;3.47;3.38;;;;;;;7.41;100.00;99416.84;5202393;22;20391;-60
2021/12/01 06:57:38;;;;;;;4.35;4.13;;;;;;;7.42;100.00;99427.31;5146672;28;20040;-60
2021/12/01 07:03:35;;;;;;;3.90;3.70;;;;;;;7.36;100.00;99395.34;5123900;29;20031;-60
2021/12/01 07:09:50;;;;;;;4.50;4.20;;;;;;;7.36;100.00;99380.03;5123837;29;20105;-59
2021/12/01 07:16:22;;;;;;;3.80;3.60;;;;;;;7.51;100.00;99402.59;5240418;22;20098;-93
2021/12/01 07:18:52;;;;;;;4.43;4.22;;;;;;;5.08;100.00;99015.44;5259435;28;20158;-91
2021/12/01 07:21:23;;;;;;;3.78;3.67;;;;;;;6.94;100.00;99305.19;5267206;28;20064;-92
2021/12/01 07:24:06;;;;;;;4.28;4.05;;;;;;;6.68;100.00;99261.47;5272438;28;20092;-92
2021/12/01 07:26:39;;;;;;;4.30;4.10;;;;;;;6.21;100.00;99186.69;5273385;28;20059;-93
2021/12/01 07:29:24;;;;;;;4.63;4.43;;;;;;;7.56;100.00;99426.75;5272768;28;20035;-90
2021/12/01 07:32:09;;;;;;;3.97;3.78;;;;;;;5.53;100.00;99072.78;5261793;28;20056;-93
2021/12/01 07:35:33;;;;;;;3.83;3.72;;;;;;;5.78;100.00;99118.31;5269851;28;20032;-92
2021/12/01 07:38:15;;;;;;;3.42;3.33;;;;;;;7.60;100.00;99392.88;5263746;28;20032;-93
2021/12/01 07:40:52;;;;;;;4.82;4.10;;;;;;;6.40;100.00;99197.66;5267540;28;20032;-92
2021/12/01 07:43:25;;;;;;;4.55;4.35;;;;;;;7.62;100.00;99371.94;5265886;28;20024;-90
2021/12/01 07:45:56;;;;;;;4.70;4.40;;;;;;;7.41;100.00;99355.88;5263030;28;20036;-92
2021/12/01 07:48:43;;;;;;;4.55;4.35;;;;;;;5.58;100.00;99104.91;5264876;28;20016;-91
2021/12/01 07:51:16;;;;;;;4.60;4.30;;;;;;;6.72;100.00;99251.81;5268833;28;20052;-93
2021/12/01 07:54:23;;;;;;;4.00;3.80;;;;;;;6.35;100.00;99168.22;5259912;28;20067;-91
2021/12/01 07:57:08;;;;;;;5.10;4.82;;;;;;;6.93;100.00;99263.31;5200502;28;20040;-91
2021/12/01 07:59:41;;;;;;;3.90;3.72;;;;;;;6.65;100.00;99207.56;5268405;28;20049;-92
2021/12/01 08:03:02;;;;;;;4.63;3.75;;;;;;;7.13;100.00;99305.44;5269857;28;20032;-90
2021/12/01 08:05:57;;;;;;;3.83;3.65;;;;;;;7.72;100.00;99355.78;5166203;28;20030;-92
2021/12/01 08:08:35;;;;;;;4.72;4.32;;;;;;;6.42;100.00;99147.25;5173551;28;20035;-91
2021/12/01 08:11:17;;;;;;;3.47;3.13;;;;;;;6.78;100.00;99207.03;5244576;28;20059;-91
2021/12/01 08:14:13;;;;;;;3.20;3.10;;;;;;;6.36;100.00;99140.28;5260198;28;20032;-91
2021/12/01 08:16:52;;;;;;;2.80;2.70;;;;;;;7.67;100.00;99385.34;5255267;28;20111;-91
2021/12/01 08:19:30;;;;;;;2.90;2.80;;;;;;;6.88;100.00;99214.25;5261010;28;20029;-91
2021/12/01 08:22:09;;;;;;;3.40;3.20;;;;;;;6.85;100.00;99228.22;5272393;28;20024;-93
2021/12/01 08:24:50;;;;;;;2.88;2.78;;;;;;;5.56;100.00;99000.75;5269049;28;20034;-92
2021/12/01 08:27:21;;;;;;;3.80;3.60;;;;;;;6.75;100.00;99192.25;5261770;28;20103;-91
2021/12/01 08:29:56;;;;;;;3.35;3.25;;;;;;;6.92;100.00;99239.47;5259724;28;20028;-91
2021/12/01 08:32:26;;;;;;;4.25;2.75;;;;;;;7.68;100.00;99354.72;5260989;28;20029;-91
2021/12/01 08:34:57;;;;;;;3.03;2.92;;;;;;;6.90;100.00;99204.84;5264710;28;20162;-90
2021/12/01 08:37:30;;;;;;;3.20;2.97;;;;;;;6.73;100.00;99172.94;5262220;28;20041;-92
2021/12/01 08:40:22;;;;;;;2.88;2.78;;;;;;;6.97;100.00;99228.69;5264977;28;20043;-91
2021/12/01 08:43:18;;;;;;;2.72;2.63;;;;;;;7.83;100.00;99351.16;5266494;28;20060;-91
2021/12/01 08:45:56;;;;;;;3.03;2.80;;;;;;;7.37;100.00;99273.44;5254263;28;20040;-92
2021/12/01 08:48:59;;;;;;;3.22;3.13;;;;;;;6.37;100.00;99113.22;5265682;28;20037;-91
2021/12/01 08:52:40;;;;;;;3.03;2.92;;;;;;;7.96;100.00;99369.41;5263765;28;20028;-92
2021/12/01 08:55:11;;;;;;;3.03;2.83;;;;;;;5.34;100.00;98947.50;5197998;28;20418;-92
2021/12/01 08:57:44;;;;;;;3.15;3.05;;;;;;;7.96;100.00;99332.56;5260343;28;20017;-93
2021/12/01 09:00:15;;;;;;;3.85;3.70;;;;;;;7.54;100.00;99291.91;5251170;28;20028;-90
2021/12/01 09:02:46;;;;;;;3.92;3.83;;;;;;;7.93;100.00;99340.38;5252502;28;20378;-91
2021/12/01 09:05:19;;;;;;;4.20;4.00;;;;;;;7.73;100.00;99306.34;5250544;28;20031;-91
2021/12/01 09:07:52;;;;;;;3.97;3.78;;;;;;;7.30;100.00;99287.13;5251496;28;20020;-91
2021/12/01 09:10:25;;;;;;;3.53;3.33;;;;;;;6.21;100.00;99095.56;5252372;28;20074;-91
2021/12/01 09:13:13;;;;;;;7.57;4.35;;;;;;;7.89;100.00;99337.44;5253925;28;20059;-92
2021/12/01 09:15:50;;;;;;;3.85;3.65;;;;;;;6.00;100.00;99033.16;5256209;28;20024;-92
2021/12/01 09:18:29;;;;;;;4.22;4.03;;;;;;;6.98;100.00;99168.59;5259993;28;20031;-91
2021/12/01 09:21:02;;;;;;;3.83;3.72;;;;;;;6.12;100.00;99059.66;5257624;28;20042;-91
2021/12/01 09:23:32;;;;;;;5.45;5.20;;;;;;;7.47;100.00;99267.22;5257791;28;20039;-92
2021/12/01 09:26:03;;;;;;;4.78;4.57;;;;;;;6.67;100.00;99147.22;5262122;28;20031;-92
2021/12/01 09:28:33;;;;;;;6.55;5.10;;;;;;;6.73;100.00;99156.06;5259638;28;20025;-91
2021/12/01 09:31:06;;;;;;;5.05;4.70;;;;;;;5.86;100.00;98991.09;5260418;28;20028;-92
2021/12/01 09:33:40;;;;;;;4.07;3.90;;;;;;;8.03;100.00;99389.53;5258229;28;20035;-91
2021/12/01 09:36:11;;;;;;;4.45;4.25;;;;;;;8.01;100.00;99350.56;5258973;28;20052;-90
2021/12/01 09:38:46;;;;;;;3.75;3.55;;;;;;;6.00;100.00;99057.28;5261580;28;20012;-92
2021/12/01 09:41:17;;;;;;;3.97;3.83;;;;;;;7.79;100.00;99346.38;5188977;22;20047;-57
2021/12/01 09:43:47;;;;;;;3.47;3.28;;;;;;;7.72;100.00;99361.97;5223392;28;20075;-57
2021/12/01 09:46:20;;;;;;;3.85;3.65;;;;;;;7.58;100.00;99352.06;5225025;28;20100;-56
2021/12/01 09:48:50;;;;;;;3.00;2.90;;;;;;;7.58;100.00;99352.06;5225515;28;20127;-58
2021/12/01 09:51:21;;;;;;;11.45;3.58;;;;;;;7.55;100.00;99350.72;5222792;28;20037;-58
2021/12/01 09:53:53;;;;;;;6.97;3.90;;;;;;;7.53;100.00;99352.88;5224516;28;20029;-59
2021/12/01 09:56:25;;;;;;;3.58;3.35;;;;;;;7.54;100.00;99348.31;5225156;28;20485;-59
2021/12/01 09:58:55;;;;;;;6.68;3.78;;;;;;;7.43;100.00;99326.88;5226145;28;20036;-60
2021/12/01 10:01:27;;;;;;;3.72;3.50;;;;;;;7.60;100.00;99347.22;5224983;28;20374;-59
2021/12/01 10:03:58;;;;;;;5.75;3.90;;;;;;;7.60;100.00;99337.28;5224492;28;20037;-58
2021/12/01 10:06:28;;;;;;;6.63;4.65;;;;;;;7.64;100.00;99343.72;5225010;28;20036;-58
2021/12/01 10:09:04;;;;;;;7.22;5.68;;;;;;;7.62;100.00;99350.44;5225114;28;20429;-56
2021/12/01 10:11:38;;;;;;;4.85;4.55;;;;;;;7.59;100.00;99341.03;5225418;28;20489;-58
2021/12/01 10:14:16;;;;;;;12.75;5.45;;;;;;;7.60;100.00;99357.97;5224790;28;20021;-58
2021/12/01 10:16:52;;;;;;;4.40;4.00;;;;;;;7.57;100.00;99353.13;5225200;28;20503;-59
2021/12/01 10:19:25;;;;;;;5.88;4.40;;;;;;;7.71;100.00;99338.06;5228923;28;20029;-57
2021/12/01 10:21:57;;;;;;;3.80;3.50;;;;;;;7.84;100.00;99348.19;5230489;28;20393;-56
2021/12/01 10:24:30;;;;;;;10.00;4.50;;;;;;;7.98;100.00;99337.69;5229155;28;20496;-55
2021/12/01 10:27:08;;;;;;;10.32;4.97;;;;;;;8.06;100.00;99332.53;5229139;28;20029;-58
2021/12/01 10:29:44;;;;;;;6.97;4.50;;;;;;;8.30;100.00;99342.63;5230554;28;20067;-56
2021/12/01 10:32:17;;;;;;;15.10;6.75;;;;;;;8.36;100.00;99336.97;5229074;28;20086;-54
2021/12/01 10:34:58;;;;;;;6.22;4.28;;;;;;;8.38;100.00;99342.84;5227610;28;20103;-55
2021/12/01 10:37:33;;;;;;;5.32;3.50;;;;;;;8.35;100.00;99342.63;5227225;28;20439;-55
2021/12/01 10:40:12;;;;;;;4.68;3.33;;;;;;;8.28;100.00;99348.28;5227033;28;20108;-58
2021/12/01 10:42:55;;;;;;;6.43;4.05;;;;;;;8.17;100.00;99335.16;5227281;28;20051;-56
2021/12/01 10:45:27;;;;;;;6.68;4.43;;;;;;;8.11;100.00;99323.63;5245360;22;20037;-63
2021/12/01 10:47:59;;;;;;;8.90;4.55;;;;;;;8.10;100.00;99327.38;5226546;28;20208;-63
2021/12/01 10:50:34;;;;;;;4.80;4.40;;;;;;;8.01;100.00;99340.63;5226946;28;20023;-63
2021/12/01 10:53:13;;;;;;;10.75;4.68;;;;;;;7.76;100.00;99341.53;5226506;28;20032;-63
2021/12/01 10:55:51;;;;;;;5.80;5.25;;;;;;;7.57;100.00;99359.31;5226878;28;20028;-62
2021/12/01 10:58:29;;;;;;;7.80;4.50;;;;;;;7.61;100.00;99354.19;5226877;28;20024;-62
2021/12/01 11:01:02;;;;;;;8.38;5.50;;;;;;;7.64;100.00;99362.53;5226782;28;20048;-62
2021/12/01 11:03:35;;;;;;;8.40;5.53;;;;;;;7.64;100.00;99354.47;5226228;28;20044;-62
2021/12/01 11:06:20;;;;;;;7.82;5.43;;;;;;;7.64;100.00;99362.53;5226580;28;20029;-62
2021/12/01 11:08:57;;;;;;;9.95;5.28;;;;;;;7.64;100.00;99361.72;5226599;28;20569;-63
2021/12/01 11:11:45;;;;;;;7.18;6.38;;;;;;;7.54;100.00;99365.22;5226435;28;20100;-63
2021/12/01 11:14:17;;;;;;;4.93;4.55;;;;;;;7.48;100.00;99362.84;5225917;28;20033;-64
2021/12/01 11:16:47;;;;;;;6.30;5.82;;;;;;;7.43;100.00;99375.19;5226271;28;20032;-63
2021/12/01 11:19:32;;;;;;;12.68;5.40;;;;;;;7.31;100.00;99369.31;5218724;28;20043;-63
2021/12/01 11:22:28;;;;;;;7.30;4.50;;;;;;;7.17;100.00;99376.31;5204766;28;20036;-63
2021/12/01 11:25:20;;;;;;;5.00;4.60;;;;;;;7.10;100.00;99365.03;5205038;28;20048;-63
2021/12/01 11:27:52;;;;;;;5.10;3.80;;;;;;;6.92;100.00;99344.94;5205229;28;20113;-63
2021/12/01 11:30:23;;;;;;;3.50;3.40;;;;;;;7.03;100.00;99359.13;5204284;28;20448;-63
2021/12/01 11:32:54;;;;;;;5.72;3.38;;;;;;;7.05;100.00;99363.16;5205065;28;20029;-63
2021/12/01 11:35:24;;;;;;;5.50;4.05;;;;;;;7.06;100.00;99369.31;5205116;28;20116;-63
2021/12/01 11:37:55;;;;;;;3.72;3.50;;;;;;;7.13;100.00;99367.19;5202356;28;20029;-63
2021/12/01 11:40:30;;;;;;;4.45;4.03;;;;;;;7.24;100.00;99366.09;5202054;28;20033;-63
2021/12/01 11:43:02;;;;;;;3.53;3.33;;;;;;;7.32;100.00;99373.59;5205068;28;20033;-64
2021/12/01 11:45:36;;;;;;;4.93;3.10;;;;;;;7.48;100.00;99368.22;5205873;28;20021;-63
2021/12/01 11:48:13;;;;;;;5.65;3.25;;;;;;;7.43;100.00;99361.78;5204986;28;20104;-64
2021/12/01 11:51:10;;;;;;;4.82;2.78;;;;;;;7.50;100.00;99363.38;5204872;28;20021;-63
2021/12/01 11:53:55;;;;;;;4.90;3.42;;;;;;;7.45;100.00;99365.00;5199917;28;20038;-64
2021/12/01 11:56:29;;;;;;;3.80;3.60;;;;;;;7.39;100.00;99363.38;5204944;28;20256;-64
2021/12/01 11:59:15;;;;;;;3.78;3.58;;;;;;;7.37;100.00;99357.47;5204901;28;20482;-63
2021/12/01 12:01:52;;;;;;;5.45;3.08;;;;;;;7.35;100.00;99356.94;5204338;28;20025;-64
2021/12/01 12:04:27;;;;;;;3.08;2.88;;;;;;;7.38;100.00;99356.41;5204341;28;20029;-64
2021/12/01 12:07:00;;;;;;;2.85;2.65;;;;;;;7.42;100.00;99362.03;5204593;28;20080;-64
2021/12/01 12:09:31;;;;;;;5.18;2.60;;;;;;;7.48;100.00;99373.59;5204555;28;20432;-64
2021/12/01 12:12:02;;;;;;;2.70;2.50;;;;;;;7.55;100.00;99368.72;5204173;28;20036;-64
2021/12/01 12:14:47;;;;;;;3.05;2.85;;;;;;;7.63;100.00;99379.72;5205355;28;20029;-64
2021/12/01 12:17:30;;;;;;;2.47;2.33;;;;;;;7.68;100.00;99366.28;5204456;28;20022;-64
2021/12/01 12:20:31;;;;;;;4.53;2.58;;;;;;;7.80;100.00;99357.88;5204344;28;20033;-64
2021/12/01 12:23:08;;;;;;;3.72;3.47;;;;;;;7.84;100.00;99356.28;5202667;28;20040;-64
2021/12/01 12:25:52;;;;;;;4.55;3.15;;;;;;;7.74;100.00;99364.38;5204048;28;20033;-64
2021/12/01 12:28:29;;;;;;;4.32;3.85;;;;;;;7.71;100.00;99348.81;5204898;28;20053;-65
2021/12/01 12:31:06;;;;;;;2.45;2.35;;;;;;;7.63;100.00;99347.47;5204239;28;20121;-64
2021/12/01 12:33:49;;;;;;;4.07;3.22;;;;;;;7.79;100.00;99359.00;5203785;28;20091;-64
2021/12/01 12:36:39;;;;;;;4.35;3.25;;;;;;;7.82;100.00;99347.66;5204148;28;20057;-64